sensor_id;sensor_type;location;lat;lon;timestamp;pressure;altitude;pressure_sealevel;temperature;humidity
76827;BME280;65788;52.284;20.890;2023-07-13T00:01:49;99996.35;;;25.31;54.87
76827;BME280;65788;52.284;20.890;2023-07-13T00:04:19;99995.48;;;25.31;54.80
76827;BME280;65788;52.284;20.890;2023-07-13T00:06:47;99995.30;;;25.31;54.80
76827;BME280;65788;52.284;20.890;2023-07-13T00:09:15;99992.67;;;25.32;54.73
76827;BME280;65788;52.284;20.890;2023-07-13T00:11:43;99996.15;;;25.32;54.72
76827;BME280;65788;52.284;20.890;2023-07-13T00:14:10;99997.20;;;25.32;54.64
76827;BME280;65788;52.284;20.890;2023-07-13T00:16:39;99992.75;;;25.33;54.57
76827;BME280;65788;52.284;20.890;2023-07-13T00:19:11;99982.46;;;25.31;54.54
76827;BME280;65788;52.284;20.890;2023-07-13T00:21:39;99979.96;;;25.31;54.48
76827;BME280;65788;52.284;20.890;2023-07-13T00:24:08;99987.34;;;25.31;54.46
76827;BME280;65788;52.284;20.890;2023-07-13T00:26:40;99990.80;;;25.30;54.41
76827;BME280;65788;52.284;20.890;2023-07-13T00:29:07;99988.20;;;25.31;54.33
76827;BME280;65788;52.284;20.890;2023-07-13T00:31:35;99987.33;;;25.29;54.34
76827;BME280;65788;52.284;20.890;2023-07-13T00:34:03;99988.35;;;25.28;54.32
76827;BME280;65788;52.284;20.890;2023-07-13T00:36:30;99984.86;;;25.28;54.28
76827;BME280;65788;52.284;20.890;2023-07-13T00:38:58;99985.45;;;25.26;54.30
76827;BME280;65788;52.284;20.890;2023-07-13T00:41:25;99983.02;;;25.28;54.17
76827;BME280;65788;52.284;20.890;2023-07-13T00:43:51;99986.20;;;25.27;54.18
76827;BME280;65788;52.284;20.890;2023-07-13T00:46:24;99988.55;;;25.25;54.21
76827;BME280;65788;52.284;20.890;2023-07-13T00:48:53;99986.64;;;25.24;54.17
76827;BME280;65788;52.284;20.890;2023-07-13T00:51:25;99981.20;;;25.23;54.14
76827;BME280;65788;52.284;20.890;2023-07-13T00:53:56;99973.69;;;25.23;54.11
76827;BME280;65788;52.284;20.890;2023-07-13T00:56:25;99975.66;;;25.24;54.06
76827;BME280;65788;52.284;20.890;2023-07-13T00:58:53;99979.70;;;25.23;54.07
76827;BME280;65788;52.284;20.890;2023-07-13T01:01:20;99980.36;;;25.22;54.10
76827;BME280;65788;52.284;20.890;2023-07-13T01:03:46;99977.16;;;25.23;54.02
76827;BME280;65788;52.284;20.890;2023-07-13T01:06:14;99976.60;;;25.22;54.04
76827;BME280;65788;52.284;20.890;2023-07-13T01:08:40;99978.71;;;25.20;54.07
76827;BME280;65788;52.284;20.890;2023-07-13T01:11:07;99980.68;;;25.22;54.00
76827;BME280;65788;52.284;20.890;2023-07-13T01:13:34;99976.64;;;25.21;54.00
76827;BME280;65788;52.284;20.890;2023-07-13T01:16:05;99977.92;;;25.19;54.01
76827;BME280;65788;52.284;20.890;2023-07-13T01:18:38;99980.51;;;25.19;54.00
76827;BME280;65788;52.284;20.890;2023-07-13T01:21:05;99980.15;;;25.17;54.01
76827;BME280;65788;52.284;20.890;2023-07-13T01:23:32;99983.52;;;25.17;54.02
76827;BME280;65788;52.284;20.890;2023-07-13T01:25:59;99979.05;;;25.17;54.00
76827;BME280;65788;52.284;20.890;2023-07-13T01:28:28;99976.56;;;25.17;53.98
76827;BME280;65788;52.284;20.890;2023-07-13T01:30:56;99977.81;;;25.16;53.95
76827;BME280;65788;52.284;20.890;2023-07-13T01:33:24;99980.39;;;25.16;53.94
76827;BME280;65788;52.284;20.890;2023-07-13T01:35:51;99992.42;;;25.16;53.95
76827;BME280;65788;52.284;20.890;2023-07-13T01:38:20;99997.32;;;25.13;53.97
76827;BME280;65788;52.284;20.890;2023-07-13T01:40:48;100005.96;;;25.13;53.95
76827;BME280;65788;52.284;20.890;2023-07-13T01:43:14;100012.00;;;25.13;53.94
76827;BME280;65788;52.284;20.890;2023-07-13T01:45:41;100012.56;;;25.14;53.87
76827;BME280;65788;52.284;20.890;2023-07-13T01:48:10;100007.35;;;25.13;53.86
76827;BME280;65788;52.284;20.890;2023-07-13T01:50:37;100004.54;;;25.12;53.88
76827;BME280;65788;52.284;20.890;2023-07-13T01:53:04;100009.85;;;25.11;53.88
76827;BME280;65788;52.284;20.890;2023-07-13T01:55:32;100009.69;;;25.11;53.86
76827;BME280;65788;52.284;20.890;2023-07-13T01:57:59;100008.34;;;25.11;53.84
76827;BME280;65788;52.284;20.890;2023-07-13T02:00:26;100006.71;;;25.11;53.82
76827;BME280;65788;52.284;20.890;2023-07-13T02:02:52;100006.42;;;25.09;53.86
76827;BME280;65788;52.284;20.890;2023-07-13T02:05:19;100003.96;;;25.09;53.81
76827;BME280;65788;52.284;20.890;2023-07-13T02:07:46;100003.02;;;25.10;53.80
76827;BME280;65788;52.284;20.890;2023-07-13T02:10:13;100005.71;;;25.09;53.77
76827;BME280;65788;52.284;20.890;2023-07-13T02:12:41;100005.55;;;25.09;53.76
76827;BME280;65788;52.284;20.890;2023-07-13T02:15:09;100010.06;;;25.08;53.74
76827;BME280;65788;52.284;20.890;2023-07-13T02:17:36;100010.51;;;25.07;53.76
76827;BME280;65788;52.284;20.890;2023-07-13T02:20:05;100007.20;;;25.07;53.75
76827;BME280;65788;52.284;20.890;2023-07-13T02:22:32;100006.76;;;25.08;53.67
76827;BME280;65788;52.284;20.890;2023-07-13T02:25:01;100005.02;;;25.08;53.64
76827;BME280;65788;52.284;20.890;2023-07-13T02:27:28;100013.14;;;25.07;53.66
76827;BME280;65788;52.284;20.890;2023-07-13T02:29:55;100017.45;;;25.07;53.66
76827;BME280;65788;52.284;20.890;2023-07-13T02:32:22;100013.98;;;25.08;53.62
76827;BME280;65788;52.284;20.890;2023-07-13T02:34:52;100014.09;;;25.06;53.67
76827;BME280;65788;52.284;20.890;2023-07-13T02:37:19;100015.77;;;25.06;53.65
76827;BME280;65788;52.284;20.890;2023-07-13T02:39:46;100019.41;;;25.07;53.62
76827;BME280;65788;52.284;20.890;2023-07-13T02:42:14;100023.04;;;25.06;53.62
76827;BME280;65788;52.284;20.890;2023-07-13T02:44:41;100025.44;;;25.05;53.66
76827;BME280;65788;52.284;20.890;2023-07-13T02:47:08;100020.13;;;25.04;53.64
76827;BME280;65788;52.284;20.890;2023-07-13T02:49:34;100014.69;;;25.04;53.60
76827;BME280;65788;52.284;20.890;2023-07-13T02:52:03;100012.64;;;25.06;53.57
76827;BME280;65788;52.284;20.890;2023-07-13T02:54:30;100011.55;;;25.04;53.60
76827;BME280;65788;52.284;20.890;2023-07-13T02:56:57;100012.05;;;25.04;53.61
76827;BME280;65788;52.284;20.890;2023-07-13T02:59:24;100010.42;;;25.04;53.61
76827;BME280;65788;52.284;20.890;2023-07-13T03:01:50;100008.86;;;25.04;53.58
76827;BME280;65788;52.284;20.890;2023-07-13T03:04:18;100009.92;;;25.03;53.58
76827;BME280;65788;52.284;20.890;2023-07-13T03:06:46;100011.27;;;25.03;53.58
76827;BME280;65788;52.284;20.890;2023-07-13T03:09:13;100011.59;;;25.01;53.62
76827;BME280;65788;52.284;20.890;2023-07-13T03:11:40;100011.09;;;25.02;53.60
76827;BME280;65788;52.284;20.890;2023-07-13T03:14:08;100008.91;;;25.02;53.56
76827;BME280;65788;52.284;20.890;2023-07-13T03:16:35;100002.97;;;25.01;53.59
76827;BME280;65788;52.284;20.890;2023-07-13T03:19:03;100004.36;;;25.01;53.61
76827;BME280;65788;52.284;20.890;2023-07-13T03:21:29;100013.77;;;24.99;53.63
76827;BME280;65788;52.284;20.890;2023-07-13T03:23:57;100010.41;;;25.00;53.58
76827;BME280;65788;52.284;20.890;2023-07-13T03:26:23;100007.94;;;25.00;53.61
76827;BME280;65788;52.284;20.890;2023-07-13T03:28:50;100007.71;;;25.00;53.60
76827;BME280;65788;52.284;20.890;2023-07-13T03:31:20;100004.08;;;24.99;53.60
76827;BME280;65788;52.284;20.890;2023-07-13T03:33:47;100003.27;;;24.98;53.61
76827;BME280;65788;52.284;20.890;2023-07-13T03:36:17;100001.77;;;25.00;53.56
76827;BME280;65788;52.284;20.890;2023-07-13T03:38:49;99996.13;;;24.99;53.54
76827;BME280;65788;52.284;20.890;2023-07-13T03:41:16;99992.20;;;24.98;53.55
76827;BME280;65788;52.284;20.890;2023-07-13T03:43:43;99990.63;;;24.98;53.50
76827;BME280;65788;52.284;20.890;2023-07-13T03:46:10;99990.23;;;24.97;53.50
76827;BME280;65788;52.284;20.890;2023-07-13T03:48:37;99992.96;;;24.97;53.50
76827;BME280;65788;52.284;20.890;2023-07-13T03:51:06;99994.70;;;24.96;53.49
76827;BME280;65788;52.284;20.890;2023-07-13T03:53:37;99995.33;;;24.97;53.43
76827;BME280;65788;52.284;20.890;2023-07-13T03:56:06;99994.37;;;24.96;53.43
76827;BME280;65788;52.284;20.890;2023-07-13T03:58:35;99995.83;;;24.97;53.41
76827;BME280;65788;52.284;20.890;2023-07-13T04:01:04;100003.83;;;24.96;53.42
76827;BME280;65788;52.284;20.890;2023-07-13T04:03:32;100001.92;;;24.96;53.41
76827;BME280;65788;52.284;20.890;2023-07-13T04:06:01;100001.14;;;24.97;53.36
76827;BME280;65788;52.284;20.890;2023-07-13T04:08:30;99997.01;;;24.97;53.35
76827;BME280;65788;52.284;20.890;2023-07-13T04:10:58;99996.95;;;24.97;53.34
76827;BME280;65788;52.284;20.890;2023-07-13T04:13:25;100002.55;;;24.96;53.35
76827;BME280;65788;52.284;20.890;2023-07-13T04:15:53;100009.47;;;24.96;53.38
76827;BME280;65788;52.284;20.890;2023-07-13T04:18:20;100010.59;;;24.94;53.42
76827;BME280;65788;52.284;20.890;2023-07-13T04:20:48;100019.38;;;24.94;53.39
76827;BME280;65788;52.284;20.890;2023-07-13T04:23:16;100027.49;;;24.94;53.41
76827;BME280;65788;52.284;20.890;2023-07-13T04:25:48;100027.88;;;24.93;53.43
76827;BME280;65788;52.284;20.890;2023-07-13T04:28:16;100034.26;;;24.93;53.41
76827;BME280;65788;52.284;20.890;2023-07-13T04:30:44;100045.23;;;24.94;53.38
76827;BME280;65788;52.284;20.890;2023-07-13T04:33:11;100049.98;;;24.94;53.42
76827;BME280;65788;52.284;20.890;2023-07-13T04:35:38;100045.84;;;24.93;53.43
76827;BME280;65788;52.284;20.890;2023-07-13T04:38:05;100048.31;;;24.94;53.42
76827;BME280;65788;52.284;20.890;2023-07-13T04:40:32;100046.23;;;24.94;53.43
76827;BME280;65788;52.284;20.890;2023-07-13T04:42:59;100045.23;;;24.94;53.43
76827;BME280;65788;52.284;20.890;2023-07-13T04:45:26;100049.44;;;24.95;53.44
76827;BME280;65788;52.284;20.890;2023-07-13T04:47:52;100051.12;;;24.95;53.46
76827;BME280;65788;52.284;20.890;2023-07-13T04:50:22;100058.73;;;24.95;53.47
76827;BME280;65788;52.284;20.890;2023-07-13T04:52:50;100055.55;;;24.96;53.49
76827;BME280;65788;52.284;20.890;2023-07-13T04:55:18;100051.91;;;24.96;53.51
76827;BME280;65788;52.284;20.890;2023-07-13T04:57:46;100048.11;;;24.96;53.53
76827;BME280;65788;52.284;20.890;2023-07-13T05:00:14;100046.44;;;24.97;53.54
76827;BME280;65788;52.284;20.890;2023-07-13T05:02:43;100045.26;;;24.97;53.59
76827;BME280;65788;52.284;20.890;2023-07-13T05:05:10;100048.39;;;24.95;53.66
76827;BME280;65788;52.284;20.890;2023-07-13T05:07:36;100049.53;;;24.99;53.61
76827;BME280;65788;52.284;20.890;2023-07-13T05:10:04;100060.17;;;25.00;53.66
76827;BME280;65788;52.284;20.890;2023-07-13T05:12:31;100067.22;;;24.99;53.71
76827;BME280;65788;52.284;20.890;2023-07-13T05:14:57;100070.73;;;24.99;53.75
76827;BME280;65788;52.284;20.890;2023-07-13T05:17:24;100076.33;;;24.98;53.84
76827;BME280;65788;52.284;20.890;2023-07-13T05:19:51;100079.47;;;24.98;53.93
76827;BME280;65788;52.284;20.890;2023-07-13T05:22:17;100081.77;;;24.99;53.99
76827;BME280;65788;52.284;20.890;2023-07-13T05:24:44;100083.01;;;24.99;54.01
76827;BME280;65788;52.284;20.890;2023-07-13T05:27:11;100080.89;;;24.99;54.01
76827;BME280;65788;52.284;20.890;2023-07-13T05:29:37;100086.61;;;25.00;54.11
76827;BME280;65788;52.284;20.890;2023-07-13T05:32:05;100090.09;;;25.01;54.13
76827;BME280;65788;52.284;20.890;2023-07-13T05:34:32;100094.77;;;25.02;54.16
76827;BME280;65788;52.284;20.890;2023-07-13T05:36:59;100099.78;;;25.01;54.25
76827;BME280;65788;52.284;20.890;2023-07-13T05:39:26;100108.23;;;25.03;54.24
76827;BME280;65788;52.284;20.890;2023-07-13T05:41:54;100111.87;;;25.04;54.28
76827;BME280;65788;52.284;20.890;2023-07-13T05:44:21;100107.06;;;25.03;54.34
76827;BME280;65788;52.284;20.890;2023-07-13T05:46:47;100109.47;;;25.04;54.48
76827;BME280;65788;52.284;20.890;2023-07-13T05:49:14;100111.70;;;25.03;54.50
76827;BME280;65788;52.284;20.890;2023-07-13T05:51:41;100110.20;;;25.05;54.55
76827;BME280;65788;52.284;20.890;2023-07-13T05:54:07;100107.13;;;25.05;54.68
76827;BME280;65788;52.284;20.890;2023-07-13T05:56:34;100103.77;;;25.04;54.82
76827;BME280;65788;52.284;20.890;2023-07-13T05:59:00;100098.90;;;25.05;54.79
76827;BME280;65788;52.284;20.890;2023-07-13T06:01:29;100091.52;;;25.05;54.85
76827;BME280;65788;52.284;20.890;2023-07-13T06:03:57;100088.00;;;25.07;54.84
76827;BME280;65788;52.284;20.890;2023-07-13T06:06:24;100090.02;;;25.07;54.85
76827;BME280;65788;52.284;20.890;2023-07-13T06:08:50;100096.23;;;25.09;54.85
76827;BME280;65788;52.284;20.890;2023-07-13T06:11:20;100094.56;;;25.09;54.91
76827;BME280;65788;52.284;20.890;2023-07-13T06:13:49;100094.27;;;25.09;55.01
76827;BME280;65788;52.284;20.890;2023-07-13T06:16:16;100089.34;;;25.08;55.14
76827;BME280;65788;52.284;20.890;2023-07-13T06:18:43;100090.13;;;25.10;55.29
76827;BME280;65788;52.284;20.890;2023-07-13T06:21:16;100089.20;;;25.11;55.28
76827;BME280;65788;52.284;20.890;2023-07-13T06:23:44;100083.37;;;25.10;55.25
76827;BME280;65788;52.284;20.890;2023-07-13T06:26:12;100079.27;;;25.10;55.23
76827;BME280;65788;52.284;20.890;2023-07-13T06:28:38;100083.27;;;25.11;55.26
76827;BME280;65788;52.284;20.890;2023-07-13T06:31:08;100093.67;;;25.11;55.29
76827;BME280;65788;52.284;20.890;2023-07-13T06:33:35;100092.02;;;25.13;55.50
76827;BME280;65788;52.284;20.890;2023-07-13T06:36:03;100087.05;;;25.18;55.43
76827;BME280;65788;52.284;20.890;2023-07-13T06:38:31;100088.17;;;25.16;55.83
76827;BME280;65788;52.284;20.890;2023-07-13T06:40:58;100082.80;;;25.17;55.95
76827;BME280;65788;52.284;20.890;2023-07-13T06:43:24;100081.99;;;25.15;56.35
76827;BME280;65788;52.284;20.890;2023-07-13T06:45:54;100086.95;;;25.11;56.83
76827;BME280;65788;52.284;20.890;2023-07-13T06:48:22;100088.23;;;25.10;56.85
76827;BME280;65788;52.284;20.890;2023-07-13T06:50:49;100080.44;;;25.15;56.74
76827;BME280;65788;52.284;20.890;2023-07-13T06:53:19;100070.38;;;25.19;56.52
76827;BME280;65788;52.284;20.890;2023-07-13T06:55:46;100067.66;;;25.24;56.95
76827;BME280;65788;52.284;20.890;2023-07-13T06:58:16;100065.31;;;25.31;57.37
76827;BME280;65788;52.284;20.890;2023-07-13T07:00:43;100060.09;;;25.29;57.22
76827;BME280;65788;52.284;20.890;2023-07-13T07:03:10;100067.46;;;25.27;57.48
76827;BME280;65788;52.284;20.890;2023-07-13T07:05:37;100068.64;;;25.27;56.69
76827;BME280;65788;52.284;20.890;2023-07-13T07:08:04;100066.46;;;25.27;57.03
76827;BME280;65788;52.284;20.890;2023-07-13T07:10:31;100068.26;;;25.28;56.47
76827;BME280;65788;52.284;20.890;2023-07-13T07:12:59;100069.12;;;25.37;55.71
76827;BME280;65788;52.284;20.890;2023-07-13T07:15:27;100066.30;;;25.41;54.97
76827;BME280;65788;52.284;20.890;2023-07-13T07:17:54;100063.88;;;25.49;54.39
76827;BME280;65788;52.284;20.890;2023-07-13T07:20:21;100068.15;;;25.53;54.08
76827;BME280;65788;52.284;20.890;2023-07-13T07:22:48;100066.05;;;25.57;53.91
76827;BME280;65788;52.284;20.890;2023-07-13T07:25:16;100066.77;;;25.58;53.39
76827;BME280;65788;52.284;20.890;2023-07-13T07:27:43;100062.70;;;25.52;54.85
76827;BME280;65788;52.284;20.890;2023-07-13T07:30:11;100060.80;;;25.51;54.69
76827;BME280;65788;52.284;20.890;2023-07-13T07:32:38;100061.83;;;25.53;54.21
76827;BME280;65788;52.284;20.890;2023-07-13T07:35:06;100067.36;;;25.52;54.34
76827;BME280;65788;52.284;20.890;2023-07-13T07:37:33;100066.64;;;25.54;54.12
76827;BME280;65788;52.284;20.890;2023-07-13T07:40:00;100069.66;;;25.74;53.42
76827;BME280;65788;52.284;20.890;2023-07-13T07:42:27;100073.24;;;25.86;53.35
76827;BME280;65788;52.284;20.890;2023-07-13T07:44:54;100071.10;;;25.84;53.53
76827;BME280;65788;52.284;20.890;2023-07-13T07:47:20;100069.98;;;25.83;54.36
76827;BME280;65788;52.284;20.890;2023-07-13T07:49:47;100071.61;;;25.85;54.18
76827;BME280;65788;52.284;20.890;2023-07-13T07:52:14;100067.77;;;25.90;53.49
76827;BME280;65788;52.284;20.890;2023-07-13T07:54:41;100065.90;;;25.89;52.94
76827;BME280;65788;52.284;20.890;2023-07-13T07:57:08;100067.59;;;25.92;52.64
76827;BME280;65788;52.284;20.890;2023-07-13T07:59:36;100064.52;;;25.97;52.08
76827;BME280;65788;52.284;20.890;2023-07-13T08:02:04;100071.45;;;26.02;52.41
76827;BME280;65788;52.284;20.890;2023-07-13T08:04:31;100073.68;;;26.07;52.34
76827;BME280;65788;52.284;20.890;2023-07-13T08:06:58;100071.34;;;26.12;52.34
76827;BME280;65788;52.284;20.890;2023-07-13T08:09:25;100069.45;;;26.17;51.71
76827;BME280;65788;52.284;20.890;2023-07-13T08:11:51;100072.09;;;26.24;51.21
76827;BME280;65788;52.284;20.890;2023-07-13T08:14:18;100072.90;;;26.26;51.50
76827;BME280;65788;52.284;20.890;2023-07-13T08:16:45;100070.15;;;26.30;50.91
76827;BME280;65788;52.284;20.890;2023-07-13T08:19:13;100071.61;;;26.31;50.43
76827;BME280;65788;52.284;20.890;2023-07-13T08:21:41;100073.73;;;26.27;50.60
76827;BME280;65788;52.284;20.890;2023-07-13T08:24:09;100073.92;;;26.37;49.68
76827;BME280;65788;52.284;20.890;2023-07-13T08:26:36;100074.48;;;26.43;49.93
76827;BME280;65788;52.284;20.890;2023-07-13T08:29:03;100067.87;;;26.38;49.61
76827;BME280;65788;52.284;20.890;2023-07-13T08:31:30;100071.15;;;26.53;48.58
76827;BME280;65788;52.284;20.890;2023-07-13T08:33:56;100072.92;;;26.58;49.52
76827;BME280;65788;52.284;20.890;2023-07-13T08:36:25;100073.11;;;26.62;49.08
76827;BME280;65788;52.284;20.890;2023-07-13T08:38:52;100075.19;;;26.64;48.40
76827;BME280;65788;52.284;20.890;2023-07-13T08:41:20;100075.60;;;26.66;48.32
76827;BME280;65788;52.284;20.890;2023-07-13T08:43:54;100074.12;;;26.82;47.33
76827;BME280;65788;52.284;20.890;2023-07-13T08:46:36;100078.89;;;26.81;47.37
76827;BME280;65788;52.284;20.890;2023-07-13T08:49:09;100087.13;;;26.78;48.34
76827;BME280;65788;52.284;20.890;2023-07-13T08:51:43;100089.70;;;26.73;47.59
76827;BME280;65788;52.284;20.890;2023-07-13T08:56:45;100093.08;;;26.72;48.23
76827;BME280;65788;52.284;20.890;2023-07-13T08:59:16;100099.02;;;26.74;48.29
76827;BME280;65788;52.284;20.890;2023-07-13T09:02:13;100100.65;;;26.79;48.25
76827;BME280;65788;52.284;20.890;2023-07-13T09:05:31;100103.92;;;26.77;48.25
76827;BME280;65788;52.284;20.890;2023-07-13T09:10:46;100103.14;;;26.82;47.99
76827;BME280;65788;52.284;20.890;2023-07-13T09:15:45;100106.38;;;26.76;48.01
76827;BME280;65788;52.284;20.890;2023-07-13T09:20:53;100118.69;;;26.67;48.11
76827;BME280;65788;52.284;20.890;2023-07-13T09:23:23;100119.19;;;26.75;47.78
76827;BME280;65788;52.284;20.890;2023-07-13T09:26:00;100114.16;;;26.73;47.62
76827;BME280;65788;52.284;20.890;2023-07-13T09:28:34;100113.08;;;26.66;47.78
76827;BME280;65788;52.284;20.890;2023-07-13T09:31:11;100117.29;;;26.64;47.66
76827;BME280;65788;52.284;20.890;2023-07-13T09:33:41;100116.83;;;26.58;47.87
76827;BME280;65788;52.284;20.890;2023-07-13T09:36:32;100115.92;;;26.53;47.71
76827;BME280;65788;52.284;20.890;2023-07-13T09:39:14;100111.64;;;26.49;47.37
76827;BME280;65788;52.284;20.890;2023-07-13T09:44:34;100093.45;;;26.41;47.12
76827;BME280;65788;52.284;20.890;2023-07-13T09:47:02;100084.30;;;26.38;47.02
76827;BME280;65788;52.284;20.890;2023-07-13T09:49:38;100081.71;;;26.34;47.03
76827;BME280;65788;52.284;20.890;2023-07-13T09:52:10;100080.21;;;26.34;46.98
76827;BME280;65788;52.284;20.890;2023-07-13T09:54:37;100082.10;;;26.32;46.94
76827;BME280;65788;52.284;20.890;2023-07-13T09:57:16;100080.20;;;26.33;46.89
76827;BME280;65788;52.284;20.890;2023-07-13T09:59:46;100079.58;;;26.30;46.92
76827;BME280;65788;52.284;20.890;2023-07-13T10:02:34;100084.23;;;26.30;46.91
76827;BME280;65788;52.284;20.890;2023-07-13T10:05:10;100083.41;;;26.37;47.00
76827;BME280;65788;52.284;20.890;2023-07-13T10:07:39;100073.25;;;26.44;46.36
76827;BME280;65788;52.284;20.890;2023-07-13T10:10:18;100065.90;;;26.34;46.28
76827;BME280;65788;52.284;20.890;2023-07-13T10:12:47;100065.94;;;26.31;46.43
76827;BME280;65788;52.284;20.890;2023-07-13T10:15:21;100069.77;;;26.32;46.31
76827;BME280;65788;52.284;20.890;2023-07-13T10:17:50;100081.24;;;26.25;46.27
76827;BME280;65788;52.284;20.890;2023-07-13T10:20:18;100087.26;;;26.28;46.16
76827;BME280;65788;52.284;20.890;2023-07-13T10:23:02;100090.40;;;26.31;46.37
76827;BME280;65788;52.284;20.890;2023-07-13T10:25:38;100091.45;;;26.23;47.27
76827;BME280;65788;52.284;20.890;2023-07-13T10:28:29;100092.90;;;26.22;47.64
76827;BME280;65788;52.284;20.890;2023-07-13T10:30:58;100097.06;;;26.24;47.72
76827;BME280;65788;52.284;20.890;2023-07-13T10:33:26;100100.73;;;26.31;47.79
76827;BME280;65788;52.284;20.890;2023-07-13T10:36:05;100105.17;;;26.38;47.84
76827;BME280;65788;52.284;20.890;2023-07-13T10:38:39;100120.84;;;26.42;47.24
76827;BME280;65788;52.284;20.890;2023-07-13T10:41:09;100133.65;;;26.46;47.28
76827;BME280;65788;52.284;20.890;2023-07-13T10:43:42;100137.83;;;26.38;47.49
76827;BME280;65788;52.284;20.890;2023-07-13T10:46:13;100150.59;;;26.28;47.90
76827;BME280;65788;52.284;20.890;2023-07-13T10:48:43;100155.96;;;26.26;48.16
76827;BME280;65788;52.284;20.890;2023-07-13T10:51:14;100164.41;;;26.21;48.51
76827;BME280;65788;52.284;20.890;2023-07-13T10:53:42;100165.01;;;26.16;48.90
76827;BME280;65788;52.284;20.890;2023-07-13T10:56:29;100155.96;;;26.12;49.25
76827;BME280;65788;52.284;20.890;2023-07-13T11:01:40;100149.33;;;26.06;49.75
76827;BME280;65788;52.284;20.890;2023-07-13T11:04:08;100141.45;;;26.04;50.04
76827;BME280;65788;52.284;20.890;2023-07-13T11:06:40;100137.66;;;25.99;50.37
76827;BME280;65788;52.284;20.890;2023-07-13T11:12:18;100164.19;;;26.21;50.51
76827;BME280;65788;52.284;20.890;2023-07-13T11:27:51;100184.52;;;26.29;51.20
76827;BME280;65788;52.284;20.890;2023-07-13T11:30:25;100193.10;;;26.26;51.59
76827;BME280;65788;52.284;20.890;2023-07-13T11:35:51;100195.90;;;26.23;52.22
76827;BME280;65788;52.284;20.890;2023-07-13T11:38:28;100199.08;;;26.19;52.11
76827;BME280;65788;52.284;20.890;2023-07-13T11:41:03;100200.85;;;26.17;52.48
76827;BME280;65788;52.284;20.890;2023-07-13T11:43:31;100196.70;;;26.17;52.24
76827;BME280;65788;52.284;20.890;2023-07-13T11:46:26;100193.54;;;26.25;53.41
76827;BME280;65788;52.284;20.890;2023-07-13T11:48:53;100193.00;;;26.29;52.54
76827;BME280;65788;52.284;20.890;2023-07-13T11:51:25;100191.01;;;26.23;52.44
76827;BME280;65788;52.284;20.890;2023-07-13T11:53:54;100198.30;;;26.23;52.76
76827;BME280;65788;52.284;20.890;2023-07-13T11:56:23;100196.39;;;26.20;52.62
76827;BME280;65788;52.284;20.890;2023-07-13T11:58:52;100196.64;;;26.18;52.71
76827;BME280;65788;52.284;20.890;2023-07-13T12:01:24;100195.73;;;26.21;52.88
76827;BME280;65788;52.284;20.890;2023-07-13T12:03:53;100190.70;;;26.17;52.61
76827;BME280;65788;52.284;20.890;2023-07-13T12:06:45;100185.09;;;26.17;52.70
76827;BME280;65788;52.284;20.890;2023-07-13T12:09:14;100179.98;;;26.15;53.02
76827;BME280;65788;52.284;20.890;2023-07-13T12:11:43;100174.59;;;26.14;53.12
76827;BME280;65788;52.284;20.890;2023-07-13T12:14:16;100169.29;;;26.16;53.57
76827;BME280;65788;52.284;20.890;2023-07-13T12:16:45;100162.57;;;26.12;53.88
76827;BME280;65788;52.284;20.890;2023-07-13T12:19:25;100160.38;;;26.08;53.59
76827;BME280;65788;52.284;20.890;2023-07-13T12:21:58;100163.30;;;26.11;54.07
76827;BME280;65788;52.284;20.890;2023-07-13T12:24:26;100160.05;;;26.10;53.88
76827;BME280;65788;52.284;20.890;2023-07-13T12:27:02;100163.83;;;26.15;53.81
76827;BME280;65788;52.284;20.890;2023-07-13T12:29:32;100161.10;;;26.19;53.61
76827;BME280;65788;52.284;20.890;2023-07-13T12:31:59;100169.05;;;26.15;53.29
76827;BME280;65788;52.284;20.890;2023-07-13T12:34:26;100167.77;;;26.18;53.18
76827;BME280;65788;52.284;20.890;2023-07-13T12:37:01;100172.56;;;26.23;53.02
76827;BME280;65788;52.284;20.890;2023-07-13T12:39:35;100168.52;;;26.27;53.05
76827;BME280;65788;52.284;20.890;2023-07-13T12:42:19;100161.40;;;26.03;53.19
76827;BME280;65788;52.284;20.890;2023-07-13T12:44:48;100159.17;;;25.41;54.89
76827;BME280;65788;52.284;20.890;2023-07-13T12:47:15;100159.91;;;25.49;55.09
76827;BME280;65788;52.284;20.890;2023-07-13T12:49:49;100159.55;;;25.52;54.92
76827;BME280;65788;52.284;20.890;2023-07-13T12:52:21;100161.77;;;25.50;54.96
76827;BME280;65788;52.284;20.890;2023-07-13T12:55:04;100162.35;;;25.39;55.21
76827;BME280;65788;52.284;20.890;2023-07-13T12:57:38;100164.98;;;25.20;55.80
76827;BME280;65788;52.284;20.890;2023-07-13T13:00:21;100162.67;;;25.18;55.89
76827;BME280;65788;52.284;20.890;2023-07-13T13:02:53;100158.94;;;25.08;56.23
76827;BME280;65788;52.284;20.890;2023-07-13T13:05:20;100163.90;;;25.05;56.38
76827;BME280;65788;52.284;20.890;2023-07-13T13:07:50;100168.11;;;25.00;56.54
76827;BME280;65788;52.284;20.890;2023-07-13T13:10:17;100166.67;;;25.02;56.44
76827;BME280;65788;52.284;20.890;2023-07-13T13:12:44;100163.80;;;25.01;56.48
76827;BME280;65788;52.284;20.890;2023-07-13T13:15:12;100161.30;;;25.03;56.38
76827;BME280;65788;52.284;20.890;2023-07-13T13:17:39;100162.43;;;25.35;57.10
76827;BME280;65788;52.284;20.890;2023-07-13T13:20:19;100170.02;;;25.55;55.71
76827;BME280;65788;52.284;20.890;2023-07-13T13:22:47;100175.20;;;25.42;56.58
76827;BME280;65788;52.284;20.890;2023-07-13T13:25:15;100183.30;;;25.37;55.76
76827;BME280;65788;52.284;20.890;2023-07-13T13:27:43;100195.16;;;25.38;55.49